Time;durP1;ratioP1;P1;durP2;ratioP2;P2;SDS_P1;SDS_P2;PMS_P1;PMS_P2;Temp;Humidity;BMP_temperature;BMP_pressure;BME280_temperature;BME280_humidity;BME280_pressure;Samples;Min_cycle;Max_cycle;Signal;HPM_P1;HPM_P2
2023/04/16 00:01:27;;;;;;;22.67;7.75;;;8.50;99.90;;;;;;5001997;28;20133;-81
2023/04/16 00:03:54;;;;;;;17.02;7.85;;;8.50;99.90;;;;;;5017126;28;20452;-82
2023/04/16 00:06:20;;;;;;;10.07;6.75;;;8.50;99.90;;;;;;5002205;28;20050;-84
2023/04/16 00:08:45;;;;;;;22.35;7.93;;;8.50;99.90;;;;;;5016763;28;20096;-82
2023/04/16 00:11:11;;;;;;;14.90;6.50;;;8.50;99.90;;;;;;5001198;28;20586;-81
2023/04/16 00:13:37;;;;;;;21.30;8.60;;;8.50;99.90;;;;;;5000550;28;20042;-80
2023/04/16 00:16:02;;;;;;;12.65;6.88;;;8.50;99.90;;;;;;5002020;28;20412;-84
2023/04/16 00:18:28;;;;;;;9.68;6.88;;;8.50;99.90;;;;;;5000606;28;20034;-82
2023/04/16 00:20:53;;;;;;;15.98;7.03;;;8.50;99.90;;;;;;5002105;28;20042;-80
2023/04/16 00:23:20;;;;;;;24.48;7.80;;;8.40;99.90;;;;;;5001795;28;20049;-82
2023/04/16 00:25:45;;;;;;;13.20;6.45;;;8.50;99.90;;;;;;5000684;28;20046;-79
2023/04/16 00:28:11;;;;;;;17.23;6.60;;;8.50;99.90;;;;;;5017090;28;20393;-84
2023/04/16 00:30:37;;;;;;;8.27;5.55;;;8.50;99.90;;;;;;5016398;28;20041;-79
2023/04/16 00:33:03;;;;;;;14.40;7.85;;;8.50;99.90;;;;;;5016469;28;20522;-80
2023/04/16 00:35:29;;;;;;;9.30;5.47;;;8.50;99.90;;;;;;5016753;28;20046;-84
2023/04/16 00:37:55;;;;;;;14.90;7.20;;;8.40;99.90;;;;;;5002094;28;20038;-78
2023/04/16 00:40:20;;;;;;;9.38;5.20;;;8.50;99.90;;;;;;4999347;28;20100;-81
2023/04/16 00:42:46;;;;;;;18.15;6.30;;;8.50;99.90;;;;;;5001633;28;20392;-82
2023/04/16 00:45:11;;;;;;;15.18;6.95;;;8.50;99.90;;;;;;5001768;28;20045;-84
2023/04/16 00:47:37;;;;;;;21.02;6.10;;;8.50;99.90;;;;;;5004356;28;20065;-83
2023/04/16 00:50:05;;;;;;;9.68;4.93;;;8.50;99.90;;;;;;5005437;28;20488;-81
2023/04/16 00:52:34;;;;;;;7.20;5.30;;;8.40;99.90;;;;;;5003535;28;20060;-83
2023/04/16 00:55:00;;;;;;;16.58;5.88;;;8.50;99.90;;;;;;5005238;28;20081;-83
2023/04/16 00:57:26;;;;;;;13.77;8.15;;;8.50;99.90;;;;;;5004141;28;20038;-78
2023/04/16 00:59:53;;;;;;;11.40;5.72;;;8.50;99.90;;;;;;5005121;28;20050;-81
2023/04/16 01:02:19;;;;;;;15.90;7.13;;;8.50;99.90;;;;;;5005382;28;20037;-83
2023/04/16 01:04:44;;;;;;;13.88;5.20;;;8.50;99.90;;;;;;5004582;28;20420;-81
2023/04/16 01:07:10;;;;;;;18.13;8.95;;;8.50;99.90;;;;;;5004650;28;20353;-80
2023/04/16 01:09:36;;;;;;;9.02;5.63;;;8.50;99.90;;;;;;5020039;28;20045;-82
2023/04/16 01:12:02;;;;;;;10.20;5.82;;;8.50;99.90;;;;;;5004260;28;20050;-80
2023/04/16 01:14:28;;;;;;;14.00;6.05;;;8.50;99.90;;;;;;5004692;28;20401;-82
2023/04/16 01:16:53;;;;;;;11.30;4.82;;;8.50;99.90;;;;;;5005328;28;20492;-82
2023/04/16 01:19:19;;;;;;;8.90;5.82;;;8.50;99.90;;;;;;5020020;28;20069;-80
2023/04/16 01:21:45;;;;;;;16.20;8.07;;;8.50;99.90;;;;;;5004785;28;20092;-83
2023/04/16 01:24:11;;;;;;;10.52;7.47;;;8.50;99.90;;;;;;5004608;28;20137;-80
2023/04/16 01:26:36;;;;;;;12.68;6.85;;;8.50;99.90;;;;;;5003460;28;20417;-80
2023/04/16 01:29:02;;;;;;;17.98;6.32;;;8.50;99.90;;;;;;5004432;28;20048;-81
2023/04/16 01:31:28;;;;;;;17.73;8.63;;;8.50;99.90;;;;;;5004327;28;20046;-79
2023/04/16 01:33:53;;;;;;;20.98;10.02;;;8.50;99.90;;;;;;5005005;28;20053;-84
2023/04/16 01:36:19;;;;;;;20.63;8.13;;;8.50;99.90;;;;;;5004648;28;20421;-81
2023/04/16 01:38:44;;;;;;;15.68;7.97;;;8.50;99.90;;;;;;5003999;28;20314;-79
2023/04/16 01:41:10;;;;;;;16.33;8.23;;;8.50;99.90;;;;;;5003916;28;20104;-83
2023/04/16 01:43:35;;;;;;;20.05;8.82;;;8.50;99.90;;;;;;5004300;28;20404;-83
2023/04/16 01:46:19;;;;;;;13.77;7.93;;;8.50;99.90;;;;;;5003876;28;20057;-79
2023/04/16 01:48:45;;;;;;;17.90;8.45;;;8.50;99.90;;;;;;5018833;28;20052;-80
2023/04/16 01:51:11;;;;;;;17.35;8.38;;;8.50;99.90;;;;;;5004257;28;20140;-83
2023/04/16 01:53:36;;;;;;;26.73;9.52;;;8.50;99.90;;;;;;5003954;28;20112;-82
2023/04/16 01:56:02;;;;;;;19.58;7.63;;;8.50;99.90;;;;;;5003418;28;20460;-82
2023/04/16 01:58:28;;;;;;;15.93;6.82;;;8.50;99.90;;;;;;5003002;28;20117;-80
2023/04/16 02:00:54;;;;;;;18.23;9.00;;;8.50;99.90;;;;;;5019053;28;20103;-83
2023/04/16 02:03:23;;;;;;;20.05;10.10;;;8.50;99.90;;;;;;5004518;28;20049;-83
2023/04/16 02:05:48;;;;;;;14.80;7.70;;;8.50;99.90;;;;;;5001794;28;20049;-78
2023/04/16 02:08:14;;;;;;;19.10;7.28;;;8.50;99.90;;;;;;5003676;28;20060;-81
2023/04/16 02:10:40;;;;;;;17.52;9.00;;;8.50;99.90;;;;;;5001443;28;20124;-83
2023/04/16 02:13:05;;;;;;;14.80;6.82;;;8.50;99.90;;;;;;5019176;28;20076;-83
2023/04/16 02:15:31;;;;;;;20.48;8.38;;;8.50;99.90;;;;;;5003307;28;20045;-81
2023/04/16 02:17:56;;;;;;;11.32;6.65;;;8.50;99.90;;;;;;5018595;28;20046;-79
2023/04/16 02:20:22;;;;;;;19.05;7.70;;;8.50;99.90;;;;;;5019027;28;20117;-81
2023/04/16 02:22:48;;;;;;;17.70;8.90;;;8.50;99.90;;;;;;5002340;28;20029;-84
2023/04/16 02:25:13;;;;;;;16.35;8.70;;;8.50;99.90;;;;;;5002851;28;20038;-80
2023/04/16 02:27:39;;;;;;;17.35;8.93;;;8.50;99.90;;;;;;5018087;28;20469;-80
2023/04/16 02:30:05;;;;;;;36.42;9.63;;;8.40;99.90;;;;;;5018444;28;20042;-82
2023/04/16 02:32:31;;;;;;;16.70;7.13;;;8.50;99.90;;;;;;5018598;28;20129;-79
2023/04/16 02:34:57;;;;;;;18.38;8.57;;;8.50;99.90;;;;;;5018363;28;20046;-83
2023/04/16 02:37:23;;;;;;;18.63;7.50;;;8.50;99.90;;;;;;5019014;28;20501;-80
2023/04/16 02:39:49;;;;;;;13.52;7.85;;;8.50;99.90;;;;;;5000601;28;20042;-83
2023/04/16 02:42:15;;;;;;;23.25;8.20;;;8.50;99.90;;;;;;5018502;28;20115;-83
2023/04/16 02:44:41;;;;;;;17.35;10.82;;;8.50;99.90;;;;;;5003115;28;20038;-81
2023/04/16 02:47:06;;;;;;;14.38;9.45;;;8.50;99.90;;;;;;4985607;28;20033;-81
2023/04/16 02:49:32;;;;;;;14.55;7.43;;;8.50;99.90;;;;;;5002680;28;20042;-79
2023/04/16 02:51:57;;;;;;;20.65;7.47;;;8.50;99.90;;;;;;5003202;28;20477;-84
2023/04/16 02:54:23;;;;;;;17.95;8.70;;;8.50;99.90;;;;;;5003618;28;20423;-84
2023/04/16 02:56:49;;;;;;;18.20;9.43;;;8.50;99.90;;;;;;5000058;28;20061;-77
2023/04/16 02:59:14;;;;;;;22.00;8.48;;;8.50;99.90;;;;;;5002753;28;20326;-81
2023/04/16 03:01:40;;;;;;;18.83;9.85;;;8.50;99.90;;;;;;5002604;28;20064;-83
2023/04/16 03:04:06;;;;;;;20.88;8.77;;;8.50;99.90;;;;;;5002972;28;20167;-82
2023/04/16 03:06:31;;;;;;;24.58;11.90;;;8.50;99.90;;;;;;5002336;28;20100;-79
2023/04/16 03:08:57;;;;;;;16.30;8.82;;;8.50;99.90;;;;;;5000655;28;20326;-80
2023/04/16 03:11:22;;;;;;;21.77;11.25;;;8.50;99.90;;;;;;5002009;28;20444;-82
2023/04/16 03:13:48;;;;;;;31.33;11.15;;;8.50;99.90;;;;;;5001303;28;20075;-83
2023/04/16 03:16:14;;;;;;;19.60;11.45;;;8.50;99.90;;;;;;5002513;28;20060;-82
2023/04/16 03:18:39;;;;;;;20.90;11.63;;;8.50;99.90;;;;;;5002473;28;20091;-80
2023/04/16 03:21:05;;;;;;;24.98;10.55;;;8.50;99.90;;;;;;5001519;28;20042;-83
2023/04/16 03:23:31;;;;;;;24.45;11.82;;;8.50;99.90;;;;;;5002457;28;20481;-83
2023/04/16 03:25:56;;;;;;;20.40;9.82;;;8.50;99.90;;;;;;5000064;28;20041;-82
2023/04/16 03:28:22;;;;;;;25.35;11.40;;;8.50;99.90;;;;;;5002386;28;20151;-81
2023/04/16 03:30:53;;;;;;;33.85;13.55;;;8.50;99.90;;;;;;5001812;28;20049;-82
2023/04/16 03:33:20;;;;;;;21.13;10.88;;;8.50;99.90;;;;;;5002550;28;20037;-81
2023/04/16 03:35:45;;;;;;;27.10;11.35;;;8.60;99.90;;;;;;5000956;28;20460;-79
2023/04/16 03:38:11;;;;;;;20.00;9.48;;;8.50;99.90;;;;;;5001218;28;20060;-79
2023/04/16 03:40:37;;;;;;;27.17;9.63;;;8.50;99.90;;;;;;5001100;28;20033;-83
2023/04/16 03:43:03;;;;;;;22.50;8.95;;;8.50;99.90;;;;;;5017633;28;20478;-80
2023/04/16 03:45:29;;;;;;;16.75;10.02;;;8.50;99.90;;;;;;5001587;28;20049;-79
2023/04/16 03:47:54;;;;;;;24.95;11.10;;;8.60;99.90;;;;;;5002105;28;20535;-77
2023/04/16 03:50:20;;;;;;;22.00;11.55;;;8.60;99.90;;;;;;5002956;28;20073;-83
2023/04/16 03:52:48;;;;;;;23.98;11.77;;;8.50;99.90;;;;;;5002136;28;20562;-82
2023/04/16 03:55:14;;;;;;;28.33;10.80;;;8.60;99.90;;;;;;5000588;28;20176;-79
2023/04/16 03:57:40;;;;;;;23.90;12.35;;;8.60;99.90;;;;;;4984486;28;20583;-83
2023/04/16 04:00:08;;;;;;;20.85;10.07;;;8.50;99.90;;;;;;5002377;28;20120;-83
2023/04/16 04:02:33;;;;;;;22.83;10.27;;;8.60;99.90;;;;;;5001397;28;20034;-82
2023/04/16 04:04:59;;;;;;;30.55;11.25;;;8.60;99.90;;;;;;5001902;28;20054;-81
2023/04/16 04:07:24;;;;;;;20.58;9.23;;;8.60;99.90;;;;;;5001771;28;20054;-78
2023/04/16 04:09:50;;;;;;;27.05;12.10;;;8.60;99.90;;;;;;5016607;28;20516;-83
2023/04/16 04:12:15;;;;;;;15.35;8.82;;;8.60;99.90;;;;;;5000465;28;20050;-81
2023/04/16 04:14:41;;;;;;;25.60;10.27;;;8.50;99.90;;;;;;5000094;28;20070;-79
2023/04/16 04:17:07;;;;;;;21.23;8.65;;;8.60;99.90;;;;;;4984237;28;20448;-83
2023/04/16 04:19:33;;;;;;;23.35;10.00;;;8.50;99.90;;;;;;5002046;28;20382;-84
2023/04/16 04:21:59;;;;;;;22.75;9.93;;;8.50;99.90;;;;;;5003868;28;20340;-78
2023/04/16 04:24:25;;;;;;;17.73;8.13;;;8.60;99.90;;;;;;5005319;28;20535;-78
2023/04/16 04:26:51;;;;;;;16.92;8.23;;;8.60;99.90;;;;;;5004906;28;20042;-79
2023/04/16 04:29:17;;;;;;;24.95;10.57;;;8.60;99.90;;;;;;5021367;28;20056;-84
2023/04/16 04:31:42;;;;;;;25.20;9.85;;;8.60;99.90;;;;;;5003822;28;20038;-79
2023/04/16 04:34:08;;;;;;;23.70;9.60;;;8.60;99.90;;;;;;5020570;28;20041;-80
2023/04/16 04:36:33;;;;;;;22.77;10.52;;;8.60;99.90;;;;;;5020432;28;20496;-81
2023/04/16 04:38:59;;;;;;;20.85;9.88;;;8.60;99.90;;;;;;4988391;28;20041;-80
2023/04/16 04:41:25;;;;;;;15.32;10.02;;;8.50;99.90;;;;;;5019299;28;20118;-79
2023/04/16 04:43:51;;;;;;;14.13;8.35;;;8.60;99.90;;;;;;5005664;28;20532;-79
2023/04/16 04:46:17;;;;;;;22.33;8.88;;;8.60;99.90;;;;;;5020401;28;20050;-78
2023/04/16 04:48:42;;;;;;;13.85;6.13;;;8.60;99.90;;;;;;5020527;28;20053;-77
2023/04/16 04:51:08;;;;;;;17.88;8.07;;;8.60;99.90;;;;;;5020548;28;20052;-81
2023/04/16 04:53:34;;;;;;;14.63;7.95;;;8.60;99.90;;;;;;5003461;28;20038;-80
2023/04/16 04:55:59;;;;;;;19.65;7.25;;;8.60;99.90;;;;;;5003941;28;20108;-77
2023/04/16 04:58:25;;;;;;;19.77;7.68;;;8.60;99.90;;;;;;5005557;28;20037;-81
2023/04/16 05:00:50;;;;;;;19.45;8.13;;;8.60;99.90;;;;;;5005550;28;20500;-81
2023/04/16 05:03:20;;;;;;;18.23;7.45;;;8.60;99.90;;;;;;5019985;28;20544;-79
2023/04/16 05:05:46;;;;;;;12.35;6.57;;;8.50;99.90;;;;;;5004813;28;20069;-83
2023/04/16 05:08:11;;;;;;;33.63;9.75;;;8.50;99.90;;;;;;5020200;28;20049;-80
2023/04/16 05:10:37;;;;;;;19.98;7.63;;;8.50;99.90;;;;;;5003671;28;20455;-81
2023/04/16 05:13:02;;;;;;;12.43;6.53;;;8.50;99.90;;;;;;5019765;28;20349;-80
2023/04/16 05:15:28;;;;;;;19.23;6.03;;;8.50;99.90;;;;;;5004879;28;20042;-81
2023/04/16 05:17:55;;;;;;;22.33;6.47;;;8.50;99.90;;;;;;5005254;28;20041;-83
2023/04/16 05:20:22;;;;;;;23.33;8.00;;;8.50;99.90;;;;;;5005295;28;20042;-79
2023/04/16 05:22:49;;;;;;;20.55;6.20;;;8.60;99.90;;;;;;5002967;28;20041;-77
2023/04/16 05:25:16;;;;;;;11.73;5.43;;;8.60;99.90;;;;;;5004525;28;20491;-84
2023/04/16 05:27:41;;;;;;;17.67;5.95;;;8.60;99.90;;;;;;5002961;28;20049;-81
2023/04/16 05:30:07;;;;;;;11.57;6.30;;;8.60;99.90;;;;;;5019608;28;20045;-79
2023/04/16 05:32:33;;;;;;;13.73;6.60;;;8.60;99.90;;;;;;5003929;28;20337;-83
2023/04/16 05:34:59;;;;;;;22.73;9.75;;;8.60;99.90;;;;;;5003037;28;20038;-83
2023/04/16 05:37:24;;;;;;;11.38;6.28;;;8.60;99.90;;;;;;5004071;28;20046;-78
2023/04/16 05:39:50;;;;;;;17.27;6.47;;;8.60;99.90;;;;;;5003693;28;20045;-80
2023/04/16 05:42:15;;;;;;;11.13;7.13;;;8.50;99.90;;;;;;5004023;28;20038;-83
2023/04/16 05:44:41;;;;;;;13.63;7.38;;;8.60;99.90;;;;;;5002658;28;20408;-77
2023/04/16 05:47:08;;;;;;;18.65;8.13;;;8.60;99.90;;;;;;5019210;28;20382;-81
2023/04/16 05:49:36;;;;;;;20.73;8.13;;;8.60;99.90;;;;;;5003664;28;20112;-79
2023/04/16 05:52:02;;;;;;;15.50;7.95;;;8.50;99.90;;;;;;5019170;28;20050;-79
2023/04/16 05:54:27;;;;;;;25.23;7.55;;;8.60;99.90;;;;;;5018413;28;20448;-84
2023/04/16 05:56:53;;;;;;;13.75;8.50;;;8.60;99.90;;;;;;5004548;28;20092;-80
2023/04/16 05:59:19;;;;;;;17.13;6.25;;;8.60;99.90;;;;;;5003668;28;20038;-81
2023/04/16 06:01:45;;;;;;;16.63;8.75;;;8.60;99.90;;;;;;5003775;28;20469;-84
2023/04/16 06:04:10;;;;;;;14.10;6.35;;;8.60;99.90;;;;;;5003834;28;20432;-82
2023/04/16 06:06:36;;;;;;;15.70;6.85;;;8.60;99.90;;;;;;5003533;28;20076;-80
2023/04/16 06:09:02;;;;;;;11.40;6.78;;;8.60;99.90;;;;;;5018959;28;20042;-80
2023/04/16 06:11:31;;;;;;;14.10;7.28;;;8.60;99.90;;;;;;5018003;28;20077;-84
2023/04/16 06:13:57;;;;;;;17.45;7.95;;;8.60;99.90;;;;;;5002169;28;20046;-81
2023/04/16 06:16:22;;;;;;;17.23;7.05;;;8.60;99.90;;;;;;5019228;28;20463;-78
2023/04/16 06:18:48;;;;;;;24.45;6.30;;;8.60;99.90;;;;;;5018577;28;20050;-83
2023/04/16 06:21:14;;;;;;;17.58;8.18;;;8.60;99.90;;;;;;5003976;28;20669;-83
2023/04/16 06:23:40;;;;;;;12.15;7.68;;;8.60;99.90;;;;;;5003453;28;20459;-82
2023/04/16 06:26:05;;;;;;;16.85;8.32;;;8.60;99.90;;;;;;5002727;28;20112;-80
2023/04/16 06:28:31;;;;;;;14.57;6.65;;;8.60;99.90;;;;;;5003002;28;20121;-80
2023/04/16 06:30:57;;;;;;;12.18;6.50;;;8.60;99.90;;;;;;5003713;28;20504;-81
2023/04/16 06:33:22;;;;;;;21.95;6.78;;;8.60;99.90;;;;;;5004165;28;20400;-83
2023/04/16 06:35:48;;;;;;;20.80;8.70;;;8.60;99.90;;;;;;5003064;28;20045;-79
2023/04/16 06:38:14;;;;;;;14.45;7.53;;;8.60;99.90;;;;;;5002800;28;20256;-80
2023/04/16 06:40:40;;;;;;;13.30;7.03;;;8.60;99.90;;;;;;5001038;28;20080;-84
2023/04/16 06:43:05;;;;;;;17.77;8.23;;;8.60;99.90;;;;;;5018014;28;20451;-83
2023/04/16 06:45:31;;;;;;;15.38;7.90;;;8.60;99.90;;;;;;5017095;28;20045;-79
2023/04/16 06:47:57;;;;;;;18.05;7.13;;;8.60;99.90;;;;;;5001387;28;20046;-79
2023/04/16 06:50:25;;;;;;;23.67;7.70;;;8.60;99.90;;;;;;5003799;28;20050;-82
2023/04/16 06:52:51;;;;;;;16.33;8.35;;;8.60;99.90;;;;;;5003893;28;20064;-81
2023/04/16 06:55:17;;;;;;;12.85;7.28;;;8.60;99.90;;;;;;5017562;28;20046;-80
2023/04/16 06:57:42;;;;;;;12.95;6.05;;;8.60;99.90;;;;;;5002700;28;20041;-79
2023/04/16 07:00:09;;;;;;;20.27;7.13;;;8.60;99.90;;;;;;5001792;28;20049;-84
2023/04/16 07:02:34;;;;;;;17.65;7.88;;;8.60;99.90;;;;;;5017784;28;20046;-81
2023/04/16 07:05:00;;;;;;;15.93;8.00;;;8.60;99.90;;;;;;5002698;28;20390;-80
2023/04/16 07:07:25;;;;;;;16.35;6.95;;;8.70;99.90;;;;;;5001938;28;20046;-79
2023/04/16 07:09:51;;;;;;;10.63;6.03;;;8.70;99.90;;;;;;5017756;28;20045;-83
2023/04/16 07:12:17;;;;;;;13.50;7.03;;;8.60;99.90;;;;;;5002994;28;20472;-81
2023/04/16 07:14:42;;;;;;;14.20;4.82;;;8.70;99.90;;;;;;5002122;28;20104;-81
2023/04/16 07:17:08;;;;;;;8.82;4.65;;;8.70;99.90;;;;;;5002812;28;20348;-81
2023/04/16 07:19:34;;;;;;;17.10;6.20;;;8.70;99.90;;;;;;5017542;28;20050;-83
2023/04/16 07:22:00;;;;;;;10.32;4.93;;;8.70;99.90;;;;;;5001302;28;20041;-83
2023/04/16 07:24:25;;;;;;;12.38;5.28;;;8.70;99.90;;;;;;5001751;28;20049;-78
2023/04/16 07:26:51;;;;;;;14.50;6.65;;;8.70;99.90;;;;;;5001072;28;20054;-82
2023/04/16 07:29:16;;;;;;;10.93;6.85;;;8.70;99.90;;;;;;5016986;28;20503;-84
2023/04/16 07:31:42;;;;;;;10.20;5.72;;;8.70;99.90;;;;;;5017252;28;20050;-80
2023/04/16 07:34:08;;;;;;;12.20;6.53;;;8.70;99.90;;;;;;5002366;28;20538;-81
2023/04/16 07:36:34;;;;;;;11.38;6.20;;;8.70;99.90;;;;;;5016952;28;20077;-80
2023/04/16 07:38:59;;;;;;;20.38;7.35;;;8.70;99.90;;;;;;5000513;28;20068;-83
2023/04/16 07:41:25;;;;;;;13.63;6.15;;;8.70;99.90;;;;;;5002048;28;20100;-82
2023/04/16 07:43:50;;;;;;;14.45;6.90;;;8.70;99.90;;;;;;5002641;28;20093;-81
2023/04/16 07:46:16;;;;;;;7.32;4.82;;;8.70;99.90;;;;;;5001802;28;20033;-80
2023/04/16 07:48:42;;;;;;;17.33;6.00;;;8.70;99.90;;;;;;5016952;28;20085;-82
2023/04/16 07:51:07;;;;;;;11.70;5.40;;;8.70;99.90;;;;;;5001920;28;20045;-83
2023/04/16 07:53:33;;;;;;;14.43;6.68;;;8.70;99.90;;;;;;5001969;28;20096;-82
2023/04/16 07:55:58;;;;;;;12.68;5.80;;;8.80;99.90;;;;;;5000892;28;20258;-81
2023/04/16 07:58:24;;;;;;;16.60;6.97;;;8.80;99.90;;;;;;5017230;28;20479;-79
2023/04/16 08:00:50;;;;;;;12.70;7.03;;;8.80;99.90;;;;;;5002061;28;20054;-79
2023/04/16 08:03:16;;;;;;;16.00;5.82;;;8.80;99.90;;;;;;5001953;28;20042;-83
2023/04/16 08:05:42;;;;;;;14.02;6.80;;;8.80;99.90;;;;;;5016119;28;20042;-80
2023/04/16 08:08:08;;;;;;;12.60;4.70;;;8.80;99.90;;;;;;5000276;28;20523;-81
2023/04/16 08:10:34;;;;;;;29.02;5.72;;;8.80;99.90;;;;;;4999906;28;20050;-84
2023/04/16 08:13:00;;;;;;;12.15;7.38;;;8.80;99.90;;;;;;5002531;28;20073;-81
2023/04/16 08:15:26;;;;;;;14.43;6.78;;;8.80;99.90;;;;;;5016534;28;20050;-80
2023/04/16 08:17:52;;;;;;;13.07;6.07;;;8.70;99.90;;;;;;5000982;28;20053;-78
2023/04/16 08:20:17;;;;;;;11.65;6.40;;;8.80;99.90;;;;;;5000306;28;20082;-83
2023/04/16 08:22:44;;;;;;;14.13;6.97;;;8.80;99.90;;;;;;5001876;28;20069;-83
2023/04/16 08:25:10;;;;;;;11.38;5.18;;;8.90;99.90;;;;;;4999981;28;20135;-80
2023/04/16 08:27:36;;;;;;;12.55;6.18;;;8.90;99.90;;;;;;5001477;28;20053;-82
2023/04/16 08:30:02;;;;;;;14.70;7.35;;;8.90;99.90;;;;;;5000758;28;20065;-82
2023/04/16 08:32:28;;;;;;;11.70;7.47;;;8.90;99.90;;;;;;5001521;28;20073;-82
2023/04/16 08:34:53;;;;;;;14.00;7.05;;;8.90;99.90;;;;;;5001626;28;20321;-81
2023/04/16 08:37:19;;;;;;;14.60;5.78;;;8.90;99.90;;;;;;5002144;28;20074;-82
2023/04/16 08:39:45;;;;;;;14.70;5.95;;;8.90;99.90;;;;;;5000773;28;20046;-83
2023/04/16 08:42:26;;;;;;;9.68;6.22;;;8.90;99.90;;;;;;5001937;28;20046;-84
2023/04/16 08:44:57;;;;;;;15.48;7.05;;;8.90;99.90;;;;;;5000858;28;20056;-81
2023/04/16 08:47:26;;;;;;;13.40;6.32;;;8.90;99.90;;;;;;5016783;28;20081;-84
2023/04/16 08:49:55;;;;;;;12.13;5.05;;;8.90;99.90;;;;;;5016989;28;20531;-78
2023/04/16 08:52:22;;;;;;;13.40;7.45;;;8.90;99.90;;;;;;5016960;28;20065;-82
2023/04/16 08:54:59;;;;;;;12.82;6.00;;;9.00;99.90;;;;;;5000316;28;20038;-83
2023/04/16 08:57:34;;;;;;;11.38;5.72;;;9.00;99.90;;;;;;5001799;28;20041;-81
2023/04/16 09:00:01;;;;;;;15.98;6.30;;;9.00;99.90;;;;;;5015807;28;20137;-79
2023/04/16 09:02:27;;;;;;;11.93;5.57;;;9.00;99.90;;;;;;5001298;28;20069;-84
2023/04/16 09:04:54;;;;;;;21.88;6.13;;;9.00;99.90;;;;;;5002092;28;20050;-78
2023/04/16 09:07:21;;;;;;;11.85;5.38;;;9.00;99.90;;;;;;5017136;28;20134;-79
2023/04/16 09:09:50;;;;;;;12.27;5.70;;;9.00;99.90;;;;;;5018924;28;20045;-83
2023/04/16 09:12:16;;;;;;;10.40;6.07;;;9.10;99.90;;;;;;5005010;28;20514;-81
2023/04/16 09:14:43;;;;;;;17.75;5.57;;;9.10;99.90;;;;;;5003495;28;20138;-81
2023/04/16 09:17:09;;;;;;;12.57;5.60;;;9.10;99.90;;;;;;5004782;28;20049;-84
2023/04/16 09:19:35;;;;;;;16.05;7.28;;;9.10;99.90;;;;;;5019431;28;20061;-84
2023/04/16 09:22:01;;;;;;;14.65;5.57;;;9.10;99.90;;;;;;5003470;28;20400;-80
2023/04/16 09:24:27;;;;;;;15.40;7.82;;;9.20;99.90;;;;;;5018625;28;20130;-79
2023/04/16 09:26:54;;;;;;;11.88;7.07;;;9.20;99.90;;;;;;5004963;28;20121;-83
2023/04/16 09:29:37;;;;;;;15.75;5.85;;;9.20;99.90;;;;;;5005037;28;20508;-83
2023/04/16 09:32:04;;;;;;;15.55;6.88;;;9.20;99.90;;;;;;5019507;28;20046;-81
2023/04/16 09:34:32;;;;;;;16.52;6.75;;;9.20;99.90;;;;;;5019164;28;20042;-82
2023/04/16 09:37:16;;;;;;;13.18;4.95;;;9.30;99.90;;;;;;5020183;28;20050;-84
2023/04/16 09:39:43;;;;;;;11.70;4.97;;;9.30;99.90;;;;;;5003008;28;20041;-80
2023/04/16 09:42:09;;;;;;;7.60;4.13;;;9.30;99.90;;;;;;5004405;28;20042;-80
2023/04/16 09:44:39;;;;;;;14.07;6.43;;;9.30;99.90;;;;;;5019259;28;20057;-83
2023/04/16 09:47:08;;;;;;;9.20;5.20;;;9.40;99.90;;;;;;5003987;28;20564;-81
2023/04/16 09:49:39;;;;;;;10.80;4.60;;;9.40;99.90;;;;;;5003918;28;20615;-83
2023/04/16 09:52:12;;;;;;;7.82;5.28;;;9.40;99.90;;;;;;5004128;28;20116;-80
2023/04/16 09:54:41;;;;;;;12.85;5.68;;;9.40;99.90;;;;;;5018167;28;20057;-84
2023/04/16 09:57:07;;;;;;;14.30;6.18;;;9.40;99.90;;;;;;5002859;28;20046;-80
2023/04/16 09:59:34;;;;;;;10.70;5.03;;;9.50;99.90;;;;;;5018500;28;20048;-80
2023/04/16 10:02:00;;;;;;;8.77;4.53;;;9.50;99.90;;;;;;5019330;28;20042;-79
2023/04/16 10:04:26;;;;;;;11.88;6.25;;;9.40;99.90;;;;;;5003346;28;20493;-80
2023/04/16 10:07:05;;;;;;;13.00;5.28;;;9.50;99.90;;;;;;5019468;28;20157;-79
2023/04/16 10:09:35;;;;;;;9.85;5.28;;;9.50;99.90;;;;;;5002915;28;20531;-80
2023/04/16 10:12:01;;;;;;;8.65;4.97;;;9.50;99.90;;;;;;5018968;28;20056;-84
2023/04/16 10:14:27;;;;;;;10.73;4.97;;;9.50;99.90;;;;;;5003734;28;20045;-81
2023/04/16 10:16:54;;;;;;;16.48;7.05;;;9.60;99.90;;;;;;5003914;28;20045;-81
2023/04/16 10:19:20;;;;;;;9.50;6.47;;;9.60;99.90;;;;;;5003846;28;20046;-81
2023/04/16 10:21:46;;;;;;;13.60;5.13;;;9.60;99.90;;;;;;5002350;28;20512;-83
2023/04/16 10:24:15;;;;;;;13.63;6.63;;;9.60;99.90;;;;;;5017780;28;20108;-80
2023/04/16 10:26:41;;;;;;;18.27;6.63;;;9.60;99.90;;;;;;5003459;28;20161;-83
2023/04/16 10:29:07;;;;;;;14.90;6.65;;;9.70;99.90;;;;;;5019167;28;20046;-83
2023/04/16 10:31:35;;;;;;;11.85;5.47;;;9.70;99.90;;;;;;5002908;28;20046;-82
2023/04/16 10:34:02;;;;;;;14.60;5.60;;;9.70;99.90;;;;;;5018641;28;20046;-79
2023/04/16 10:36:27;;;;;;;9.30;5.72;;;9.70;99.90;;;;;;5003159;28;20049;-82
2023/04/16 10:38:58;;;;;;;13.90;6.07;;;9.70;99.90;;;;;;5003018;28;20038;-84
2023/04/16 10:41:25;;;;;;;14.07;6.97;;;9.70;99.90;;;;;;5003468;28;20532;-81
2023/04/16 10:43:51;;;;;;;11.05;5.88;;;9.70;99.90;;;;;;5002508;28;20050;-84
2023/04/16 10:46:27;;;;;;;9.90;6.47;;;9.70;99.90;;;;;;5002831;28;20046;-81
2023/04/16 10:48:54;;;;;;;10.30;5.47;;;9.70;99.90;;;;;;5019019;28;20057;-84
2023/04/16 10:51:25;;;;;;;16.67;6.85;;;9.70;99.90;;;;;;5001998;28;20041;-81
2023/04/16 10:53:52;;;;;;;11.00;5.53;;;9.80;99.90;;;;;;5001516;28;20412;-84
2023/04/16 10:56:30;;;;;;;16.05;6.95;;;9.80;99.90;;;;;;5018491;28;20098;-83
2023/04/16 10:58:55;;;;;;;12.88;6.32;;;9.80;99.90;;;;;;5018024;28;20041;-83
2023/04/16 11:01:35;;;;;;;14.70;5.13;;;9.80;99.90;;;;;;5003209;28;20046;-80
2023/04/16 11:04:23;;;;;;;9.13;5.38;;;9.80;99.90;;;;;;5017826;28;20053;-79
2023/04/16 11:07:15;;;;;;;19.33;6.43;;;9.80;99.90;;;;;;5002558;28;20046;-82
2023/04/16 11:09:58;;;;;;;19.47;6.33;;;9.80;99.90;;;;;;4965562;28;20054;-79
2023/04/16 11:12:30;;;;;;;15.52;6.35;;;9.80;99.90;;;;;;5003418;28;20046;-83
2023/04/16 11:15:03;;;;;;;17.05;6.75;;;9.80;99.90;;;;;;5017957;28;20052;-79
2023/04/16 11:17:45;;;;;;;11.75;6.30;;;9.80;99.90;;;;;;5017157;28;20058;-83
2023/04/16 11:20:19;;;;;;;20.60;6.03;;;9.80;99.90;;;;;;5002669;28;20551;-81
2023/04/16 11:22:45;;;;;;;12.93;4.95;;;9.80;99.90;;;;;;5002638;28;20108;-83
2023/04/16 11:25:11;;;;;;;13.93;7.03;;;9.80;99.90;;;;;;5017244;28;20073;-82
2023/04/16 11:27:37;;;;;;;11.77;5.63;;;9.90;99.90;;;;;;5017286;28;20081;-79
2023/04/16 11:30:04;;;;;;;14.05;6.10;;;9.90;99.90;;;;;;5016856;28;20345;-82
2023/04/16 11:32:37;;;;;;;11.05;5.57;;;9.90;99.90;;;;;;5000961;28;20052;-83
2023/04/16 11:35:12;;;;;;;8.57;6.35;;;9.90;99.90;;;;;;5002433;28;20091;-81
2023/04/16 11:37:38;;;;;;;18.50;6.32;;;10.00;99.90;;;;;;5017560;28;20429;-82
2023/04/16 11:40:10;;;;;;;13.52;6.05;;;10.00;99.90;;;;;;5016378;28;20068;-83
2023/04/16 11:42:40;;;;;;;7.85;5.20;;;10.00;99.90;;;;;;5016996;28;20129;-81
2023/04/16 11:45:08;;;;;;;11.10;5.90;;;10.00;99.90;;;;;;5017767;28;20064;-83
2023/04/16 11:47:45;;;;;;;7.50;5.50;;;10.00;99.90;;;;;;5002395;28;20404;-82
2023/04/16 11:50:16;;;;;;;15.15;7.28;;;10.00;99.90;;;;;;5001140;28;20477;-83
2023/04/16 11:52:42;;;;;;;13.18;6.55;;;10.10;99.90;;;;;;5016703;28;20466;-79
2023/04/16 11:55:08;;;;;;;10.38;5.07;;;10.10;99.90;;;;;;4999743;28;20127;-83
2023/04/16 11:57:33;;;;;;;9.88;5.82;;;10.00;99.90;;;;;;5001835;28;20493;-83
2023/04/16 11:59:59;;;;;;;13.95;6.47;;;10.10;99.90;;;;;;5001129;28;20073;-81
2023/04/16 12:02:48;;;;;;;13.05;6.13;;;10.10;99.90;;;;;;5001580;28;20041;-79
2023/04/16 12:05:29;;;;;;;12.07;6.60;;;10.10;99.90;;;;;;5016937;28;20063;-83
2023/04/16 12:07:55;;;;;;;11.65;5.53;;;10.10;99.90;;;;;;5002291;28;20042;-78
2023/04/16 12:10:21;;;;;;;11.95;5.15;;;10.10;99.90;;;;;;5001471;28;20046;-80
2023/04/16 12:12:46;;;;;;;11.68;6.45;;;10.10;99.90;;;;;;5016857;28;20103;-82
2023/04/16 12:15:12;;;;;;;10.18;5.45;;;10.10;99.90;;;;;;5002206;28;20117;-80
2023/04/16 12:17:37;;;;;;;11.43;6.13;;;10.20;99.90;;;;;;5001613;28;20500;-83
2023/04/16 12:20:08;;;;;;;9.00;5.15;;;10.20;99.90;;;;;;5001888;28;20268;-81
2023/04/16 12:22:38;;;;;;;13.25;5.95;;;10.20;99.90;;;;;;5001888;28;20044;-83
2023/04/16 12:25:11;;;;;;;11.00;5.50;;;10.30;99.90;;;;;;5001174;28;20118;-81
2023/04/16 12:27:44;;;;;;;11.43;5.35;;;10.30;99.90;;;;;;5016582;28;20077;-84
2023/04/16 12:30:10;;;;;;;15.20;6.72;;;10.30;99.90;;;;;;5001746;28;20050;-81
2023/04/16 12:32:36;;;;;;;9.90;5.32;;;10.30;99.90;;;;;;5016940;28;20377;-83
2023/04/16 12:35:02;;;;;;;13.13;7.00;;;10.40;99.90;;;;;;5016913;28;20068;-82
2023/04/16 12:37:27;;;;;;;12.63;5.40;;;10.40;99.90;;;;;;5016603;28;20279;-79
2023/04/16 12:39:53;;;;;;;11.10;5.53;;;10.40;99.90;;;;;;5001166;28;20161;-80
2023/04/16 12:42:20;;;;;;;11.13;5.63;;;10.40;99.90;;;;;;5019316;28;20124;-83
2023/04/16 12:44:45;;;;;;;9.82;4.53;;;10.40;99.90;;;;;;5004551;28;20042;-83